createdAt,value
2018-12-13T00:00:38.960Z,98.91
2018-12-13T00:01:38.961Z,98.96
2018-12-13T00:03:31.853Z,99.34
2018-12-13T00:04:31.863Z,99.34
2018-12-13T00:06:24.767Z,99.48
2018-12-13T00:07:24.765Z,99.48
2018-12-13T00:09:17.661Z,99.20
2018-12-13T00:10:17.672Z,99.15
2018-12-13T00:12:10.571Z,99.58
2018-12-13T00:13:10.571Z,99.20
2018-12-13T00:15:03.463Z,99.06
2018-12-13T00:16:03.472Z,98.72
2018-12-13T00:17:56.372Z,99.67
2018-12-13T00:18:56.373Z,99.29
2018-12-13T00:20:49.275Z,99.20
2018-12-13T00:21:49.274Z,99.29
2018-12-13T00:23:42.170Z,98.49
2018-12-13T00:24:42.177Z,98.77
2018-12-13T00:26:35.080Z,98.39
2018-12-13T00:27:35.081Z,98.49
2018-12-13T00:29:27.970Z,98.54
2018-12-13T00:30:27.978Z,99.20
2018-12-13T00:32:20.878Z,98.44
2018-12-13T00:33:20.880Z,98.63
2018-12-13T00:35:13.773Z,98.44
2018-12-13T00:36:13.782Z,98.63
2018-12-13T00:38:06.678Z,98.25
2018-12-13T00:39:06.680Z,98.82
2018-12-13T00:41:00.074Z,98.72
2018-12-13T00:42:00.078Z,98.63
2018-12-13T00:43:52.969Z,99.01
2018-12-13T00:44:52.973Z,98.63
2018-12-13T00:46:45.871Z,98.54
2018-12-13T00:47:45.873Z,98.63
2018-12-13T00:49:38.761Z,98.44
2018-12-13T00:50:38.773Z,98.44
2018-12-13T00:52:31.682Z,98.54
2018-12-13T00:53:31.670Z,98.44
2018-12-13T00:55:31.691Z,99.20
2018-12-13T00:56:24.573Z,99.29
2018-12-13T00:58:17.962Z,99.01
2018-12-13T00:59:17.966Z,99.29
2018-12-13T01:01:10.865Z,99.67
2018-12-13T01:02:10.867Z,99.39
2018-12-13T01:04:03.758Z,99.86
2018-12-13T01:05:03.767Z,99.86
2018-12-13T01:06:56.665Z,99.86
2018-12-13T01:07:56.669Z,99.99
2018-12-13T01:09:49.559Z,99.86
2018-12-13T01:10:49.568Z,99.77
2018-12-13T01:12:42.471Z,99.99
2018-12-13T01:13:42.471Z,99.99
2018-12-13T01:15:35.364Z,99.99
2018-12-13T01:16:35.372Z,99.99
2018-12-13T01:18:28.270Z,99.99
2018-12-13T01:19:28.271Z,99.96
2018-12-13T01:21:21.294Z,99.96
2018-12-13T01:22:21.169Z,99.99
2018-12-13T01:24:14.058Z,99.99
2018-12-13T01:25:21.189Z,99.99
2018-12-13T01:27:14.088Z,99.99
2018-12-13T01:28:14.086Z,99.99
2018-12-13T01:29:59.855Z,99.99
2018-12-13T01:31:06.988Z,99.99
2018-12-13T01:32:52.762Z,99.99
2018-12-13T01:33:59.883Z,99.99
2018-12-13T01:35:45.650Z,99.99
2018-12-13T01:36:45.659Z,99.96
2018-12-13T01:38:39.048Z,99.99
2018-12-13T01:39:39.052Z,99.96
2018-12-13T01:41:32.451Z,99.99
2018-12-13T01:42:32.452Z,99.99
2018-12-13T01:44:25.340Z,99.96
2018-12-13T01:45:25.349Z,99.99
2018-12-13T01:47:18.252Z,99.48
2018-12-13T01:48:18.252Z,99.67
2018-12-13T01:50:11.174Z,99.67
2018-12-13T01:51:11.275Z,99.67
2018-12-13T01:53:04.087Z,99.29
2018-12-13T01:54:04.091Z,99.29
2018-12-13T01:55:57.471Z,99.39
2018-12-13T01:56:57.484Z,99.33
2018-12-13T01:58:50.379Z,98.82
2018-12-13T01:59:50.383Z,99.05
2018-12-13T02:01:43.276Z,99.05
2018-12-13T02:02:43.279Z,98.86
2018-12-13T02:04:36.179Z,99.10
2018-12-13T02:05:36.185Z,99.05
2018-12-13T02:07:29.077Z,99.05
2018-12-13T02:08:29.079Z,98.77
2018-12-13T02:10:22.461Z,99.24
2018-12-13T02:11:22.468Z,98.77
2018-12-13T02:13:16.365Z,99.24
2018-12-13T02:14:16.365Z,99.43
2018-12-13T02:16:09.255Z,99.52
2018-12-13T02:17:09.264Z,99.52
2018-12-13T02:19:02.160Z,99.62
2018-12-13T02:20:02.160Z,99.81
2018-12-13T02:21:55.067Z,99.52
2018-12-13T02:22:55.065Z,99.99
2018-12-13T02:24:47.953Z,99.62
2018-12-13T02:25:48.001Z,99.62
2018-12-13T02:27:40.860Z,99.24
2018-12-13T02:28:40.860Z,99.15
2018-12-13T02:30:33.753Z,99.15
2018-12-13T02:31:33.762Z,99.99
2018-12-13T02:33:26.658Z,99.90
2018-12-13T02:34:26.663Z,99.52
2018-12-13T02:36:19.560Z,99.81
2018-12-13T02:37:19.557Z,99.71
2018-12-13T02:39:12.460Z,99.62
2018-12-13T02:40:12.461Z,99.24
2018-12-13T02:42:05.360Z,99.15
2018-12-13T02:43:05.359Z,99.15
2018-12-13T02:44:58.251Z,99.15
2018-12-13T02:45:58.257Z,99.43
2018-12-13T02:47:51.156Z,99.24
2018-12-13T02:48:51.154Z,99.43
2018-12-13T02:50:44.053Z,99.24
2018-12-13T02:51:44.060Z,99.15
2018-12-13T02:53:36.956Z,99.33
2018-12-13T02:54:36.951Z,99.05
2018-12-13T02:56:29.840Z,99.24
2018-12-13T02:57:29.852Z,99.33
2018-12-13T02:59:23.745Z,99.15
2018-12-13T03:00:23.745Z,99.15
2018-12-13T03:02:16.646Z,98.96
2018-12-13T03:03:16.645Z,99.15
2018-12-13T03:05:09.533Z,99.05
2018-12-13T03:06:09.544Z,98.86
2018-12-13T03:08:02.445Z,99.05
2018-12-13T03:09:02.446Z,98.49
2018-12-13T03:10:55.332Z,98.86
2018-12-13T03:11:55.342Z,98.86
2018-12-13T03:13:48.252Z,98.49
2018-12-13T03:14:48.244Z,98.49
2018-12-13T03:16:41.625Z,98.30
2018-12-13T03:17:41.639Z,98.01
2018-12-13T03:19:34.536Z,98.11
2018-12-13T03:20:34.536Z,98.11
2018-12-13T03:22:27.430Z,98.20
2018-12-13T03:23:27.432Z,98.20
2018-12-13T03:25:20.318Z,98.30
2018-12-13T03:26:20.336Z,98.39
2018-12-13T03:28:13.221Z,97.73
2018-12-13T03:29:13.222Z,97.63
2018-12-13T03:31:06.113Z,97.54
2018-12-13T03:32:06.161Z,97.44
2018-12-13T03:33:59.015Z,97.49
2018-12-13T03:34:59.017Z,97.54
2018-12-13T03:36:51.905Z,97.63
2018-12-13T03:37:51.914Z,97.82
2018-12-13T03:39:44.810Z,97.11
2018-12-13T03:40:44.813Z,96.83
2018-12-13T03:42:37.708Z,97.58
2018-12-13T03:43:37.709Z,97.82
2018-12-13T03:45:30.594Z,96.88
2018-12-13T03:46:30.604Z,97.20
2018-12-13T03:48:23.498Z,97.20
2018-12-13T03:49:23.501Z,97.11
2018-12-13T03:51:16.386Z,97.02
2018-12-13T03:52:16.396Z,97.20
2018-12-13T03:54:10.291Z,97.02
2018-12-13T03:55:10.289Z,97.87
2018-12-13T03:57:03.669Z,97.96
2018-12-13T03:58:03.679Z,97.77
2018-12-13T03:59:56.575Z,97.77
2018-12-13T04:00:56.577Z,97.30
2018-12-13T04:02:49.481Z,97.30
2018-12-13T04:03:49.482Z,97.68
2018-12-13T04:05:42.368Z,97.49
2018-12-13T04:06:42.375Z,96.92
2018-12-13T04:08:35.767Z,96.73
2018-12-13T04:09:35.767Z,97.11
2018-12-13T04:11:28.657Z,97.39
2018-12-13T04:12:28.665Z,97.11
2018-12-13T04:14:21.559Z,97.11
2018-12-13T04:15:21.561Z,97.39
2018-12-13T04:17:14.452Z,97.02
2018-12-13T04:18:14.460Z,97.02
2018-12-13T04:20:07.852Z,97.02
2018-12-13T04:21:07.851Z,97.02
2018-12-13T04:23:00.750Z,97.30
2018-12-13T04:24:00.748Z,97.77
2018-12-13T04:25:54.634Z,97.58
2018-12-13T04:26:54.647Z,97.68
2018-12-13T04:28:48.032Z,97.58
2018-12-13T04:29:48.033Z,97.58
2018-12-13T04:31:40.918Z,97.39
2018-12-13T04:32:40.927Z,97.87
2018-12-13T04:34:34.318Z,97.77
2018-12-13T04:35:34.321Z,97.58
2018-12-13T04:37:27.211Z,97.11
2018-12-13T04:38:27.219Z,97.87
2018-12-13T04:40:20.606Z,97.39
2018-12-13T04:41:20.609Z,97.11
2018-12-13T04:43:13.508Z,97.68
2018-12-13T04:44:13.511Z,97.58
2018-12-13T04:46:06.394Z,97.39
2018-12-13T04:47:06.403Z,97.39
2018-12-13T04:48:59.792Z,97.77
2018-12-13T04:49:59.794Z,97.58
2018-12-13T04:51:52.686Z,97.87
2018-12-13T04:52:52.694Z,97.58
2018-12-13T04:54:45.587Z,97.68
2018-12-13T04:55:45.589Z,97.39
2018-12-13T04:57:38.482Z,97.77
2018-12-13T04:58:38.487Z,97.58
2018-12-13T05:00:31.382Z,97.68
2018-12-13T05:01:31.387Z,97.68
2018-12-13T05:03:24.769Z,97.39
2018-12-13T05:04:24.773Z,97.58
2018-12-13T05:06:17.665Z,97.39
2018-12-13T05:07:17.668Z,97.58
2018-12-13T05:09:11.056Z,97.87
2018-12-13T05:10:11.061Z,97.87
2018-12-13T05:12:03.945Z,97.96
2018-12-13T05:13:03.955Z,97.49
2018-12-13T05:14:56.852Z,97.30
2018-12-13T05:15:56.852Z,97.58
2018-12-13T05:17:49.741Z,97.02
2018-12-13T05:18:49.751Z,96.83
2018-12-13T05:20:42.652Z,97.11
2018-12-13T05:21:42.644Z,96.92
2018-12-13T05:23:35.539Z,97.30
2018-12-13T05:24:35.538Z,97.39
2018-12-13T05:26:28.430Z,97.02
2018-12-13T05:27:28.435Z,97.87
2018-12-13T05:29:21.329Z,97.96
2018-12-13T05:30:21.332Z,97.11
2018-12-13T05:32:14.215Z,96.73
2018-12-13T05:33:14.224Z,97.02
2018-12-13T05:35:07.126Z,97.11
2018-12-13T05:36:07.123Z,97.02
2018-12-13T05:38:00.011Z,97.02
2018-12-13T05:39:00.018Z,97.30
2018-12-13T05:40:53.408Z,97.02
2018-12-13T05:41:53.411Z,96.97
2018-12-13T05:43:46.313Z,97.49
2018-12-13T05:44:46.331Z,97.49
2018-12-13T05:46:39.193Z,97.72
2018-12-13T05:47:39.203Z,97.34
2018-12-13T05:49:32.099Z,97.72
2018-12-13T05:50:32.098Z,97.72
2018-12-13T05:52:24.988Z,97.72
2018-12-13T05:53:24.995Z,97.53
2018-12-13T05:55:17.895Z,97.91
2018-12-13T05:56:17.899Z,97.63
2018-12-13T05:58:11.274Z,98.01
2018-12-13T05:59:11.282Z,97.53
2018-12-13T06:01:04.179Z,97.91
2018-12-13T06:02:04.177Z,98.29
2018-12-13T06:03:58.074Z,98.20
2018-12-13T06:04:58.073Z,98.20
2018-12-13T06:06:50.978Z,98.29
2018-12-13T06:07:54.794Z,98.10
2018-12-13T06:09:43.868Z,98.20
2018-12-13T06:10:43.867Z,97.91
2018-12-13T06:12:36.754Z,97.91
2018-12-13T06:13:36.761Z,98.20
2018-12-13T06:15:29.656Z,98.20
2018-12-13T06:16:29.657Z,98.01
2018-12-13T06:18:22.545Z,97.82
2018-12-13T06:19:26.677Z,98.58
2018-12-13T06:21:15.444Z,98.20
2018-12-13T06:22:15.556Z,99.15
2018-12-13T06:24:09.346Z,99.15
2018-12-13T06:25:09.348Z,99.05
2018-12-13T06:27:02.258Z,99.15
2018-12-13T06:28:02.278Z,98.96
2018-12-13T06:29:58.909Z,99.43
2018-12-13T06:30:55.159Z,99.33
2018-12-13T06:32:48.044Z,99.24
2018-12-13T06:33:48.053Z,99.43
2018-12-13T06:35:40.945Z,99.43
2018-12-13T06:36:40.946Z,99.43
2018-12-13T06:38:33.833Z,99.33
2018-12-13T06:39:33.842Z,99.05
2018-12-13T06:41:26.738Z,99.43
2018-12-13T06:42:26.739Z,99.15
2018-12-13T06:44:19.636Z,98.96
2018-12-13T06:45:19.635Z,99.24
2018-12-13T06:47:12.523Z,99.15
2018-12-13T06:48:12.532Z,99.24
2018-12-13T06:50:05.439Z,99.43
2018-12-13T06:51:05.427Z,99.05
2018-12-13T06:52:58.314Z,99.05
2018-12-13T06:53:58.322Z,98.77
2018-12-13T06:55:51.216Z,98.82
2018-12-13T06:56:51.214Z,98.82
2018-12-13T06:58:44.104Z,99.15
2018-12-13T06:59:44.115Z,98.82
2018-12-13T07:01:37.010Z,99.19
2018-12-13T07:02:37.007Z,99.19
2018-12-13T07:04:29.905Z,99.01
2018-12-13T07:05:29.907Z,99.01
2018-12-13T07:07:22.797Z,99.19
2018-12-13T07:08:22.804Z,99.10
2018-12-13T07:10:15.698Z,99.19
2018-12-13T07:11:15.697Z,99.01
2018-12-13T07:13:08.584Z,98.53
2018-12-13T07:14:08.592Z,98.53
2018-12-13T07:16:01.494Z,98.72
2018-12-13T07:17:01.489Z,98.63
2018-12-13T07:18:54.396Z,98.15
2018-12-13T07:19:54.387Z,97.96
2018-12-13T07:21:47.288Z,98.15
2018-12-13T07:22:47.288Z,98.06
2018-12-13T07:24:40.180Z,98.15
2018-12-13T07:25:40.183Z,98.15
2018-12-13T07:27:33.072Z,98.44
2018-12-13T07:28:33.077Z,97.87
2018-12-13T07:30:25.973Z,98.15
2018-12-13T07:31:25.978Z,98.15
2018-12-13T07:33:19.857Z,98.34
2018-12-13T07:34:19.866Z,98.44
2018-12-13T07:36:12.791Z,98.44
2018-12-13T07:37:12.800Z,98.44
2018-12-13T07:39:05.780Z,98.25
2018-12-13T07:40:05.713Z,98.15
2018-12-13T07:41:58.612Z,98.15
2018-12-13T07:42:58.607Z,97.77
2018-12-13T07:44:51.502Z,97.77
2018-12-13T07:45:51.503Z,97.39
2018-12-13T07:47:44.393Z,97.87
2018-12-13T07:48:44.399Z,97.39
2018-12-13T07:50:37.298Z,97.77
2018-12-13T07:51:37.295Z,97.77
2018-12-13T07:53:30.184Z,97.02
2018-12-13T07:54:30.194Z,97.39
2018-12-13T07:56:23.093Z,97.68
2018-12-13T07:57:23.089Z,97.58
2018-12-13T07:59:15.980Z,97.68
2018-12-13T08:00:15.985Z,97.68
2018-12-13T08:02:08.882Z,97.77
2018-12-13T08:03:08.883Z,97.68
2018-12-13T08:05:01.780Z,97.54
2018-12-13T08:06:01.782Z,97.58
2018-12-13T08:07:54.671Z,96.97
2018-12-13T08:08:54.681Z,98.01
2018-12-13T08:10:47.580Z,97.06
2018-12-13T08:11:47.582Z,96.69
2018-12-13T08:13:40.471Z,96.50
2018-12-13T08:14:40.482Z,96.88
2018-12-13T08:16:33.888Z,96.69
2018-12-13T08:17:33.885Z,96.78
2018-12-13T08:19:26.774Z,96.12
2018-12-13T08:20:26.782Z,95.93
2018-12-13T08:22:19.679Z,95.93
2018-12-13T08:23:19.681Z,95.74
2018-12-13T08:25:13.770Z,95.55
2018-12-13T08:26:13.772Z,95.93
2018-12-13T08:28:06.664Z,95.64
2018-12-13T08:29:06.667Z,96.40
2018-12-13T08:30:59.566Z,95.93
2018-12-13T08:31:59.569Z,96.12
2018-12-13T08:33:52.458Z,96.21
2018-12-13T08:34:52.466Z,96.31
2018-12-13T08:36:45.362Z,95.74
2018-12-13T08:37:45.369Z,95.36
2018-12-13T08:39:38.257Z,95.93
2018-12-13T08:40:38.265Z,95.74
2018-12-13T08:42:31.162Z,95.55
2018-12-13T08:43:31.169Z,96.02
2018-12-13T08:45:24.432Z,95.45
2018-12-13T08:46:24.072Z,95.26
2018-12-13T08:48:16.956Z,95.22
2018-12-13T08:49:17.026Z,94.23
2018-12-13T08:51:09.866Z,94.46
2018-12-13T08:52:09.870Z,94.56
2018-12-13T08:54:02.757Z,94.46
2018-12-13T08:55:02.769Z,94.37
2018-12-13T08:56:55.664Z,93.99
2018-12-13T08:57:55.666Z,94.08
2018-12-13T08:59:48.555Z,93.99
2018-12-13T09:00:48.568Z,93.42
2018-12-13T09:02:41.472Z,93.70
2018-12-13T09:03:41.469Z,93.61
2018-12-13T09:05:34.374Z,93.70
2018-12-13T09:06:34.372Z,93.42
2018-12-13T09:08:33.442Z,93.23
2018-12-13T09:09:27.268Z,92.76
2018-12-13T09:11:20.165Z,92.85
2018-12-13T09:12:20.165Z,92.94
2018-12-13T09:14:13.054Z,92.76
2018-12-13T09:15:13.065Z,92.94
2018-12-13T09:17:05.971Z,93.32
2018-12-13T09:18:05.968Z,92.76
2018-12-13T09:19:59.351Z,92.94
2018-12-13T09:20:59.366Z,93.04
2018-12-13T09:22:52.267Z,93.13
2018-12-13T09:23:52.268Z,92.28
2018-12-13T09:25:45.168Z,93.04
2018-12-13T09:26:45.169Z,93.04
2018-12-13T09:28:38.068Z,92.28
2018-12-13T09:29:38.077Z,92.38
2018-12-13T09:31:30.976Z,92.00
2018-12-13T09:32:30.976Z,93.04
2018-12-13T09:34:24.360Z,92.85
2018-12-13T09:35:24.374Z,92.94
2018-12-13T09:37:17.273Z,92.28
2018-12-13T09:38:17.275Z,92.47
2018-12-13T09:40:10.164Z,92.09
2018-12-13T09:41:10.174Z,91.90
2018-12-13T09:43:03.077Z,91.62
2018-12-13T09:44:03.078Z,91.43
2018-12-13T09:45:55.973Z,92.09
2018-12-13T09:46:55.976Z,92.09
2018-12-13T09:48:49.459Z,91.90
2018-12-13T09:49:48.876Z,91.71
2018-12-13T09:51:41.774Z,92.28
2018-12-13T09:52:41.777Z,92.47
2018-12-13T09:54:34.677Z,92.47
2018-12-13T09:55:34.677Z,92.47
2018-12-13T09:57:27.578Z,92.94
2018-12-13T09:58:27.585Z,92.66
2018-12-13T10:00:20.473Z,93.04
2018-12-13T10:01:20.484Z,92.19
2018-12-13T10:03:13.875Z,92.85
2018-12-13T10:04:13.879Z,92.76
2018-12-13T10:06:06.781Z,93.04
2018-12-13T10:07:13.906Z,92.85
2018-12-13T10:09:06.787Z,93.04
2018-12-13T10:10:06.810Z,92.76
2018-12-13T10:11:52.582Z,92.85
2018-12-13T10:12:59.702Z,92.76
2018-12-13T10:14:52.598Z,92.66
2018-12-13T10:15:53.095Z,92.85
2018-12-13T10:17:38.382Z,92.94
2018-12-13T10:18:38.383Z,92.76
2018-12-13T10:20:31.279Z,92.85
2018-12-13T10:21:31.292Z,92.94
2018-12-13T10:23:24.188Z,93.04
2018-12-13T10:24:24.194Z,92.85
2018-12-13T10:26:17.090Z,93.56
2018-12-13T10:27:17.089Z,93.37
2018-12-13T10:29:09.986Z,93.27
2018-12-13T10:30:09.993Z,93.37
2018-12-13T10:32:02.899Z,93.75
2018-12-13T10:33:02.896Z,93.37
2018-12-13T10:34:55.789Z,93.37
2018-12-13T10:35:55.798Z,93.51
2018-12-13T10:37:49.200Z,94.18
2018-12-13T10:38:52.946Z,94.32
2018-12-13T10:40:42.094Z,94.08
2018-12-13T10:41:42.108Z,94.18
2018-12-13T10:43:35.009Z,94.13
2018-12-13T10:44:35.009Z,93.84
2018-12-13T10:46:27.909Z,93.70
2018-12-13T10:47:27.915Z,93.84
2018-12-13T10:49:20.798Z,93.75
2018-12-13T10:50:20.809Z,93.75
2018-12-13T10:52:14.202Z,93.56
2018-12-13T10:53:14.205Z,93.75
2018-12-13T10:55:07.101Z,94.04
2018-12-13T10:56:07.105Z,94.13
2018-12-13T10:58:00.006Z,93.37
2018-12-13T10:59:00.012Z,93.65
2018-12-13T11:00:53.921Z,93.56
2018-12-13T11:01:53.932Z,93.37
2018-12-13T11:03:46.835Z,93.46
2018-12-13T11:04:46.835Z,93.65
2018-12-13T11:06:39.733Z,93.37
2018-12-13T11:07:39.734Z,93.46
2018-12-13T11:09:32.831Z,93.37
2018-12-13T11:10:32.853Z,92.99
2018-12-13T11:12:25.738Z,93.08
2018-12-13T11:13:25.743Z,92.90
2018-12-13T11:15:18.632Z,92.90
2018-12-13T11:16:18.642Z,92.80
2018-12-13T11:18:11.542Z,92.90
2018-12-13T11:19:11.544Z,93.46
2018-12-13T11:21:04.435Z,92.99
2018-12-13T11:22:04.444Z,92.80
2018-12-13T11:23:57.838Z,93.18
2018-12-13T11:24:57.845Z,92.52
2018-12-13T11:26:50.746Z,93.08
2018-12-13T11:27:50.747Z,93.18
2018-12-13T11:29:43.638Z,92.61
2018-12-13T11:30:43.647Z,92.99
2018-12-13T11:32:36.553Z,92.80
2018-12-13T11:33:36.552Z,92.99
2018-12-13T11:35:29.442Z,92.80
2018-12-13T11:36:29.452Z,93.46
2018-12-13T11:38:22.356Z,93.94
2018-12-13T11:39:22.357Z,93.56
2018-12-13T11:41:15.249Z,92.99
2018-12-13T11:42:15.260Z,92.90
2018-12-13T11:44:08.164Z,92.90
2018-12-13T11:45:08.167Z,93.46
2018-12-13T11:47:01.064Z,93.46
2018-12-13T11:48:01.070Z,93.56
2018-12-13T11:49:53.965Z,93.27
2018-12-13T11:50:53.975Z,93.08
2018-12-13T11:52:47.171Z,92.99
2018-12-13T11:53:46.880Z,92.99
2018-12-13T11:55:39.773Z,92.38
2018-12-13T11:56:39.783Z,92.18
2018-12-13T11:58:32.685Z,91.42
2018-12-13T11:59:32.690Z,91.76
2018-12-13T12:01:25.582Z,91.66
2018-12-13T12:02:25.592Z,91.52
2018-12-13T12:04:18.491Z,91.38
2018-12-13T12:05:18.494Z,91.38
2018-12-13T12:07:11.399Z,91.76
2018-12-13T12:08:11.399Z,91.76
2018-12-13T12:10:05.288Z,91.66
2018-12-13T12:11:05.298Z,91.85
2018-12-13T12:12:58.196Z,92.09
2018-12-13T12:13:58.198Z,92.09
2018-12-13T12:15:51.096Z,91.61
2018-12-13T12:16:51.106Z,91.52
2018-12-13T12:18:44.007Z,91.47
2018-12-13T12:19:44.013Z,91.14
2018-12-13T12:21:37.903Z,90.81
2018-12-13T12:22:37.917Z,90.72
2018-12-13T12:24:30.815Z,90.62
2018-12-13T12:25:30.816Z,90.24
2018-12-13T12:27:23.716Z,90.91
2018-12-13T12:28:23.719Z,91.00
2018-12-13T12:30:16.614Z,90.91
2018-12-13T12:31:16.623Z,90.72
2018-12-13T12:33:09.528Z,90.62
2018-12-13T12:34:09.530Z,90.72
2018-12-13T12:36:02.424Z,90.81
2018-12-13T12:37:02.435Z,91.00
2018-12-13T12:38:55.333Z,90.15
2018-12-13T12:39:55.335Z,90.05
2018-12-13T12:41:48.229Z,89.48
2018-12-13T12:42:48.237Z,89.39
2018-12-13T12:44:41.145Z,89.77
2018-12-13T12:45:41.141Z,89.11
2018-12-13T12:47:34.041Z,90.15
2018-12-13T12:48:34.046Z,91.00
2018-12-13T12:50:26.944Z,90.72
2018-12-13T12:51:26.950Z,90.72
2018-12-13T12:53:19.851Z,90.72
2018-12-13T12:54:19.852Z,90.91
2018-12-13T12:56:12.747Z,90.81
2018-12-13T12:57:13.400Z,91.09
2018-12-13T12:59:05.662Z,91.19
2018-12-13T13:00:05.659Z,90.38
2018-12-13T13:01:58.556Z,90.05
2018-12-13T13:02:58.564Z,90.00
2018-12-13T13:04:51.468Z,89.77
2018-12-13T13:05:51.468Z,89.29
2018-12-13T13:07:44.368Z,89.58
2018-12-13T13:08:44.371Z,89.77
2018-12-13T13:10:37.261Z,89.77
2018-12-13T13:11:37.272Z,89.39
2018-12-13T13:13:30.668Z,89.29
2018-12-13T13:14:30.670Z,89.77
2018-12-13T13:16:23.565Z,89.48
2018-12-13T13:17:23.572Z,89.58
2018-12-13T13:19:16.474Z,89.20
2018-12-13T13:20:16.476Z,89.48
2018-12-13T13:22:09.369Z,90.05
2018-12-13T13:23:09.378Z,89.86
2018-12-13T13:25:02.281Z,89.86
2018-12-13T13:26:02.282Z,89.86
2018-12-13T13:27:55.183Z,90.15
2018-12-13T13:28:55.185Z,90.34
2018-12-13T13:30:48.080Z,90.05
2018-12-13T13:31:48.092Z,90.34
2018-12-13T13:33:41.002Z,90.43
2018-12-13T13:34:40.992Z,90.34
2018-12-13T13:36:33.885Z,90.53
2018-12-13T13:37:33.894Z,90.62
2018-12-13T13:39:31.444Z,91.09
2018-12-13T13:40:26.801Z,90.53
2018-12-13T13:42:19.692Z,90.62
2018-12-13T13:43:19.702Z,91.00
2018-12-13T13:45:13.602Z,90.53
2018-12-13T13:46:13.604Z,90.15
2018-12-13T13:48:06.505Z,89.67
2018-12-13T13:49:06.507Z,89.39
2018-12-13T13:50:59.398Z,89.67
2018-12-13T13:51:59.408Z,89.96
2018-12-13T13:53:52.306Z,89.48
2018-12-13T13:54:52.309Z,89.48
2018-12-13T13:56:45.206Z,89.48
2018-12-13T13:57:45.213Z,89.58
2018-12-13T13:59:38.111Z,89.39
2018-12-13T14:00:38.113Z,89.48
2018-12-13T14:02:31.010Z,89.11
2018-12-13T14:03:31.019Z,89.11
2018-12-13T14:05:23.916Z,89.29
2018-12-13T14:06:23.918Z,89.58
2018-12-13T14:08:16.818Z,89.86
2018-12-13T14:09:16.817Z,89.77
2018-12-13T14:11:09.713Z,89.77
2018-12-13T14:12:09.720Z,89.48
2018-12-13T14:14:02.617Z,88.82
2018-12-13T14:15:02.618Z,88.92
2018-12-13T14:16:55.514Z,88.25
2018-12-13T14:17:55.523Z,88.73
2018-12-13T14:19:48.424Z,88.35
2018-12-13T14:20:48.477Z,88.63
2018-12-13T14:22:41.317Z,87.77
2018-12-13T14:23:41.326Z,88.06
2018-12-13T14:25:34.225Z,87.02
2018-12-13T14:26:34.226Z,87.21
2018-12-13T14:28:27.128Z,87.12
2018-12-13T14:29:27.127Z,87.12
2018-12-13T14:31:20.017Z,86.83
2018-12-13T14:32:20.027Z,86.93
2018-12-13T14:34:12.924Z,87.30
2018-12-13T14:35:12.928Z,86.64
2018-12-13T14:37:05.821Z,86.93
2018-12-13T14:38:05.829Z,87.30
2018-12-13T14:39:58.728Z,87.77
2018-12-13T14:40:58.730Z,87.59
2018-12-13T14:42:51.618Z,87.59
2018-12-13T14:43:51.629Z,87.77
2018-12-13T14:45:44.528Z,87.21
2018-12-13T14:46:44.534Z,87.40
2018-12-13T14:48:37.430Z,87.02
2018-12-13T14:49:37.432Z,87.02
2018-12-13T14:51:30.326Z,87.77
2018-12-13T14:52:30.335Z,87.59
2018-12-13T14:54:23.233Z,87.49
2018-12-13T14:55:23.237Z,87.77
2018-12-13T14:57:16.129Z,87.68
2018-12-13T14:58:16.140Z,88.25
2018-12-13T15:00:09.037Z,88.06
2018-12-13T15:01:09.041Z,87.87
2018-12-13T15:03:01.936Z,88.16
2018-12-13T15:04:01.953Z,87.68
2018-12-13T15:05:54.843Z,88.54
2018-12-13T15:06:54.846Z,88.54
2018-12-13T15:08:47.747Z,88.44
2018-12-13T15:09:50.925Z,88.54
2018-12-13T15:11:41.170Z,89.39
2018-12-13T15:12:41.419Z,89.11
2018-12-13T15:14:34.280Z,89.39
2018-12-13T15:15:34.279Z,89.96
2018-12-13T15:17:27.168Z,90.05
2018-12-13T15:18:27.191Z,89.67
2018-12-13T15:20:20.076Z,90.34
2018-12-13T15:21:20.080Z,90.24
2018-12-13T15:23:12.971Z,90.05
2018-12-13T15:24:12.982Z,90.15
2018-12-13T15:26:05.883Z,90.15
2018-12-13T15:27:05.883Z,90.05
2018-12-13T15:28:58.784Z,90.24
2018-12-13T15:29:58.783Z,90.24
2018-12-13T15:31:59.133Z,90.15
2018-12-13T15:32:51.706Z,90.34
2018-12-13T15:34:44.603Z,90.05
2018-12-13T15:35:44.599Z,90.43
2018-12-13T15:37:37.494Z,90.05
2018-12-13T15:38:37.503Z,90.05
2018-12-13T15:40:30.402Z,89.86
2018-12-13T15:41:30.413Z,89.96
2018-12-13T15:43:23.297Z,90.15
2018-12-13T15:44:23.311Z,90.53
2018-12-13T15:46:16.208Z,90.05
2018-12-13T15:47:16.210Z,90.34
2018-12-13T15:49:09.106Z,90.81
2018-12-13T15:50:09.172Z,90.81
2018-12-13T15:52:02.001Z,90.81
2018-12-13T15:53:02.024Z,90.81
2018-12-13T15:54:54.906Z,90.72
2018-12-13T15:55:54.913Z,90.72
2018-12-13T15:57:47.809Z,90.53
2018-12-13T15:58:47.815Z,91.00
2018-12-13T16:00:40.713Z,91.00
2018-12-13T16:01:40.719Z,91.09
2018-12-13T16:03:33.649Z,91.57
2018-12-13T16:04:33.639Z,91.38
2018-12-13T16:06:26.517Z,91.57
2018-12-13T16:07:26.519Z,91.38
2018-12-13T16:09:19.456Z,91.28
2018-12-13T16:10:19.454Z,91.28
2018-12-13T16:12:12.314Z,91.76
2018-12-13T16:13:12.323Z,92.14
2018-12-13T16:15:05.225Z,92.04
2018-12-13T16:16:05.227Z,91.76
2018-12-13T16:17:58.127Z,91.57
2018-12-13T16:18:58.128Z,92.04
2018-12-13T16:20:52.018Z,92.00
2018-12-13T16:21:52.021Z,91.81
2018-12-13T16:23:44.914Z,92.04
2018-12-13T16:24:44.923Z,91.90
2018-12-13T16:26:37.821Z,91.85
2018-12-13T16:27:37.822Z,92.14
2018-12-13T16:29:30.722Z,91.95
2018-12-13T16:30:30.726Z,91.90
2018-12-13T16:32:23.614Z,91.95
2018-12-13T16:33:23.625Z,91.90
2018-12-13T16:35:16.527Z,91.76
2018-12-13T16:36:16.546Z,91.90
2018-12-13T16:38:10.919Z,91.71
2018-12-13T16:39:10.923Z,91.52
2018-12-13T16:41:03.895Z,90.95
2018-12-13T16:42:03.911Z,91.52
2018-12-13T16:43:56.789Z,91.62
2018-12-13T16:44:56.798Z,91.52
2018-12-13T16:46:50.194Z,91.14
2018-12-13T16:47:50.195Z,91.24
2018-12-13T16:49:43.093Z,91.52
2018-12-13T16:50:43.094Z,91.71
2018-12-13T16:52:36.135Z,91.33
2018-12-13T16:53:36.002Z,91.24
2018-12-13T16:55:28.896Z,91.14
2018-12-13T16:56:28.897Z,91.71
2018-12-13T16:58:22.280Z,91.81
2018-12-13T16:59:22.290Z,91.52
2018-12-13T17:01:15.191Z,91.52
2018-12-13T17:02:15.193Z,91.14
2018-12-13T17:04:08.085Z,91.33
2018-12-13T17:05:08.093Z,91.14
2018-12-13T17:07:01.484Z,91.52
2018-12-13T17:08:01.487Z,91.62
2018-12-13T17:09:54.388Z,91.81
2018-12-13T17:10:54.391Z,91.81
2018-12-13T17:12:47.285Z,91.71
2018-12-13T17:13:47.293Z,91.62
2018-12-13T17:15:40.194Z,92.00
2018-12-13T17:16:40.207Z,91.43
2018-12-13T17:18:33.093Z,91.71
2018-12-13T17:19:33.102Z,91.71
2018-12-13T17:21:26.001Z,91.62
2018-12-13T17:22:26.004Z,92.28
2018-12-13T17:24:19.109Z,92.09
2018-12-13T17:25:19.120Z,92.28
2018-12-13T17:27:12.052Z,92.85
2018-12-13T17:28:12.074Z,93.04
2018-12-13T17:30:04.960Z,92.57
2018-12-13T17:31:04.966Z,92.85
2018-12-13T17:32:58.849Z,92.85
2018-12-13T17:33:58.861Z,93.32
2018-12-13T17:35:51.761Z,93.32
2018-12-13T17:36:51.761Z,93.42
2018-12-13T17:38:44.649Z,93.99
2018-12-13T17:39:44.658Z,93.70
2018-12-13T17:41:49.260Z,93.51
2018-12-13T17:42:49.243Z,93.70
2018-12-13T17:44:42.308Z,93.99
2018-12-13T17:45:42.215Z,93.70
2018-12-13T17:47:35.105Z,93.89
2018-12-13T17:48:35.115Z,93.80
2018-12-13T17:50:28.014Z,93.89
2018-12-13T17:51:28.017Z,93.99
2018-12-13T17:53:20.911Z,93.89
2018-12-13T17:54:20.918Z,93.99
2018-12-13T17:56:13.813Z,93.99
2018-12-13T17:57:13.815Z,94.08
2018-12-13T17:59:06.706Z,94.08
2018-12-13T18:00:06.716Z,93.99
2018-12-13T18:01:59.865Z,94.27
2018-12-13T18:02:59.614Z,93.99
2018-12-13T18:04:53.018Z,94.46
2018-12-13T18:05:53.022Z,93.99
2018-12-13T18:07:45.917Z,94.27
2018-12-13T18:08:45.926Z,94.37
2018-12-13T18:10:40.093Z,94.08
2018-12-13T18:11:39.927Z,94.18
2018-12-13T18:13:33.646Z,93.99
2018-12-13T18:14:33.703Z,94.18
2018-12-13T18:16:27.813Z,94.37
2018-12-13T18:17:27.749Z,94.46
2018-12-13T18:19:20.640Z,94.18
2018-12-13T18:20:20.649Z,93.80
2018-12-13T18:22:13.546Z,93.89
2018-12-13T18:23:13.549Z,94.08
2018-12-13T18:25:06.449Z,93.70
2018-12-13T18:26:06.450Z,94.08
2018-12-13T18:27:59.340Z,94.37
2018-12-13T18:28:59.348Z,94.65
2018-12-13T18:30:52.284Z,94.93
2018-12-13T18:31:52.403Z,95.22
2018-12-13T18:33:45.577Z,94.84